Terminal Aerodrome Forecast
Issued by NWS Duluth, MN

Home | Current Version | Previous Version | Text Only | Print | Product List | Glossary On
Versions: 1 2 3 4 5 6 7 8 9 10 11 12
000
FTUS43 KDLH 251100
TAFDLH
TAF
KDLH 251120Z 2512/2612 07009KT P6SM OVC070
     FM251600 08012G18KT P6SM SCT070
     FM252100 09012KT P6SM BKN250
     FM260300 06005KT P6SM SKC=

USA.gov is the U.S. government's official web portal to all federal, state and local government web resources and services.